Portada
METAR-TAF:

METAR-TAF

Aeroports :

Pamplona, Espanya

latitud: 42-46N, longitud: 001-38W, altitud: 459 m

Observació

L'informe es va fer fa 2 hores i 34 minuts, a les 05:00 UTC
Vent 3 kt del Est, variant entre Nord-Est i Est/Sud-Est
Temperatura 14°C
Humitat 82%
Pressió 1020 hPa
Visibilitat 10 km o més
sense núvols per sota de 1500 mi sense presència de cumulonimbus.

METAR: LEPP 210500Z 10003KT 050V120 CAVOK 14/11 Q1020

Hora: 09:34 (07:34 UTC)

Pronòstic

L'informe es va fer fa 5 hores i 34 minuts, a les 02:00 UTC
Pronòstic vàlid del 21 a les 03 UTC al 22 a les 03 UTC
Vent 5 kt amb direcció variable
Visibilitat 10 km o més
sense núvols per sota de 1500 mi sense presència de cumulonimbus.
Evolucionant progressivament
l' 21 a les 12 UTC al 21 a les 15 UTC
Vent 10 kt del Nord

TAF: LEPP 210200Z 2103/2203 VRB05KT CAVOK TX32/2114Z TN15/2106Z BECMG 2112/2115 35010KT

Observacions i pronòstics meteorològics de més de 4000 aeroports (METAR i TAF).

Les estacions disponibles són els punts grocs i vermells al mapa.

Posi el ratolí al punt desitjat per veure el nom de l'estació.

Feu clic per veure les observacions i els pronòstics meteorològics.

Per canviar el mapa: feu clic els botons verds amb una creu de color negre per apropar; al botó verd amb un guió per allunyar la imatge; o en les fletxes verdes per a mapes adjacents.


METAR-TAF: